Terminal Aerodrome Forecast
Issued by NWS

Home | Current Version | Previous Version | Text Only | Print | Product List | Glossary Off
Versions: 1 2 3 4 5 6 7 8 9 10 11 12 13 14 15 16 17 18 19 20

000
FTUS43 KICT 261724
TAFSLN
TAF
KSLN 261724Z 2618/2718 30013KT P6SM SCT035
      TEMPO 2618/2621 BKN030
     FM270000 35004KT P6SM SKC
     FM270600 06005KT P6SM SKC
     FM271400 09005KT P6SM SCT150=

USA.gov is the U.S. government's official web portal to all federal, state and local government web resources and services.